Flight Track Log - Related Links

Times and Time Zones

All times are in EST time to prevent confusion due to time zone crossing. See the JA-801A flight status page for this flight to view local times or setup timezone preferences in your user account.

Time Position Orientation Groundspeed Altitude Reporting Facility
EST Latitude Longitude Course Direction KTS MPH feet Rate Location/Type
Tue 07:43:00 PM 34.0354 131.7419 75° East  Level Estimated
Tue 07:44:00 PM 34.0702 131.8966 75° East  Level Estimated
Tue 07:45:00 PM 34.1048 132.0514 75° East  Level Estimated
Tue 07:46:00 PM 34.1391 132.2064 75° East  Level Estimated
Tue 07:47:00 PM 34.1733 132.3615 75° East  Level Estimated
Tue 07:48:00 PM 34.2073 132.5167 75° East  Level Estimated
Tue 07:49:00 PM 34.2411 132.6720 75° East  Level Estimated
Tue 07:49:04 PM 33.7570 132.1570 75° East 470 541 20,500  Level FlightAware ADS-B
Tue 07:49:54 PM 33.7920 132.2940 73° East 487 560 21,600 2,343 Climbing FlightAware ADS-B
Tue 07:50:49 PM 33.8280 132.4360 73° East 512 589 24,600 2,842 Climbing FlightAware ADS-B
Tue 07:51:29 PM 33.8590 132.5610 73° East 528 608 26,100 1,765 Climbing FlightAware ADS-B
Tue 07:52:14 PM 33.8920 132.6940 73° East 560 644 27,100 1,482 Climbing FlightAware ADS-B
Tue 07:52:54 PM 33.9220 132.8160 73° East 578 665 28,200 1,553 Climbing FlightAware ADS-B
Tue 07:53:39 PM 33.9560 132.9560 74° East 593 682 29,300 1,553 Climbing FlightAware ADS-B
Tue 07:54:19 PM 33.9870 133.0830 74° East 607 699 30,400 1,425 Climbing FlightAware ADS-B
Tue 07:54:59 PM 34.0180 133.2080 73° East 624 718 31,200 1,271 Climbing FlightAware ADS-B
Tue 07:55:44 PM 34.0560 133.3640 74° East 640 736 32,200 1,412 Climbing FlightAware ADS-B
Tue 07:56:24 PM 34.0880 133.4990 74° East 647 745 33,200 1,412 Climbing FlightAware ADS-B
Tue 07:57:09 PM 34.1270 133.6600 74° East 655 754 34,200 1,271 Climbing FlightAware ADS-B
Tue 07:57:49 PM 34.1590 133.7980 74° East 660 760 35,000 1,200 Climbing FlightAware ADS-B
Tue 07:58:19 PM 34.1850 133.9080 74° East 664 764 35,600 1,714 Climbing FlightAware ADS-B
Tue 07:58:59 PM 34.2180 134.0470 74° East 658 757 37,000 2,175 Climbing FlightAware ADS-B
Tue 07:59:39 PM 34.2430 134.1690 76° East 640 736 38,500 1,906 Climbing FlightAware ADS-B
Tue 08:00:24 PM 34.2740 134.3300 77° East 632 727 39,700 1,271 Climbing FlightAware ADS-B
Tue 08:01:04 PM 34.3030 134.4750 76° East 633 728 40,300 918 Climbing FlightAware ADS-B
Tue 08:01:49 PM 34.3300 134.6170 77° East 635 731 41,000 494 Climbing FlightAware ADS-B
Tue 08:02:29 PM 34.3580 134.7580 76° East 636 732 41,000  Level FlightAware ADS-B
Tue 08:03:09 PM 34.3860 134.8990 76° East 633 728 41,000  Level FlightAware ADS-B
Tue 08:03:54 PM 34.4100 135.0450 79° East 637 733 41,000  Level FlightAware ADS-B
Tue 08:04:34 PM 34.4350 135.2020 79° East 638 734 41,000  Level FlightAware ADS-B
Tue 08:05:19 PM 34.4590 135.3570 79° East 636 732 41,000  Level FlightAware ADS-B
Tue 08:05:54 PM 34.4780 135.4780 79° East 637 733 41,000  Level FlightAware ADS-B
Tue 08:06:39 PM 34.5030 135.6340 79° East 637 733 41,000  Level FlightAware ADS-B
Tue 08:07:24 PM 34.5250 135.7740 79° East 639 735 41,000  Level FlightAware ADS-B
Tue 08:08:04 PM 34.5500 135.9380 79° East 640 736 41,000  Level FlightAware ADS-B
Tue 08:08:49 PM 34.5740 136.0910 79° East 638 734 41,000  Level FlightAware ADS-B
Tue 08:09:29 PM 34.5950 136.2260 79° East 638 734 41,000  Level FlightAware ADS-B
Tue 08:10:09 PM 34.6120 136.3410 80° East 638 734 41,000  Level FlightAware ADS-B
Tue 08:10:54 PM 34.6410 136.5320 79° East 639 735 41,000  Level FlightAware ADS-B
Tue 08:11:34 PM 34.6610 136.6660 80° East 638 734 41,000  Level FlightAware ADS-B
Tue 08:12:14 PM 34.6830 136.8130 80° East 639 735 41,000  Level FlightAware ADS-B
Tue 08:12:59 PM 34.7010 136.9710 82° East 639 735 41,000  Level FlightAware ADS-B
Tue 08:13:34 PM 34.7060 137.0960 87° East 640 736 41,000  Level FlightAware ADS-B
Tue 08:14:24 PM 34.7080 137.2730 89° East 641 738 41,000 -60 Level FlightAware ADS-B
Tue 08:15:14 PM 34.7100 137.4720 89° East 622 716 40,900 -1,074 Descending FlightAware ADS-B
Tue 08:15:59 PM 34.7110 137.6090 89° East 622 716 39,300 -2,400 Descending FlightAware ADS-B
Tue 08:16:39 PM 34.7030 137.7340 94° East 621 715 37,500 -2,824 Descending FlightAware ADS-B
Tue 08:17:24 PM 34.6460 137.8930 114° Southeast 625 719 35,300 -2,250 Descending FlightAware ADS-B
Tue 08:17:59 PM 34.5770 137.9970 129° Southeast 578 665 34,500 -1,425 Descending FlightAware ADS-B
Tue 08:18:44 PM 34.5080 138.0920 131° Southeast 567 652 33,400 -1,600 Descending FlightAware ADS-B
Tue 08:19:29 PM 34.4320 138.2010 130° Southeast 562 647 32,100 -1,694 Descending FlightAware ADS-B
Tue 08:20:09 PM 34.3730 138.3090 123° Southeast 562 647 31,000 -1,553 Descending FlightAware ADS-B
Tue 08:20:54 PM 34.3330 138.4410 110° East 560 644 29,900 -1,412 Descending FlightAware ADS-B
Tue 08:21:34 PM 34.3010 138.5570 108° East 546 628 29,000 -1,360 Descending FlightAware ADS-B
Tue 08:22:09 PM 34.2750 138.6650 106° East 542 624 28,200 -1,133 Descending FlightAware ADS-B
Tue 08:23:04 PM 34.2490 138.8280 101° East 513 590 27,300 -1,133 Descending FlightAware ADS-B
Tue 08:23:39 PM 34.2330 138.9270 101° East 496 571 26,500 -1,425 Descending FlightAware ADS-B
Tue 08:24:24 PM 34.2170 139.0370 100° East 485 558 25,400 -1,600 Descending FlightAware ADS-B
Tue 08:25:09 PM 34.2330 139.1590 81° East 465 535 24,100 -1,765 Descending FlightAware ADS-B
Tue 08:25:49 PM 34.2660 139.2500 66° East 449 517 22,900 -1,553 Descending FlightAware ADS-B
Tue 08:26:34 PM 34.3150 139.3450 58° Northeast 435 501 21,900 -1,482 Descending FlightAware ADS-B
Tue 08:27:14 PM 34.3560 139.4260 58° Northeast 428 493 20,800 -1,725 Descending FlightAware ADS-B
Tue 08:27:54 PM 34.3980 139.5080 58° Northeast 414 476 19,600 -1,694 Descending FlightAware ADS-B
Tue 08:28:39 PM 34.4430 139.5960 58° Northeast 404 465 18,400 -1,482 Descending FlightAware ADS-B
Tue 08:29:19 PM 34.4820 139.6730 58° Northeast 405 466 17,500 -1,412 Descending FlightAware ADS-B
Tue 08:30:04 PM 34.5270 139.7610 58° Northeast 401 461 16,400 -1,440 Descending FlightAware ADS-B
Tue 08:30:34 PM 34.5560 139.8170 58° Northeast 387 445 15,700 -1,457 Descending FlightAware ADS-B
Tue 08:31:14 PM 34.6010 139.8840 51° Northeast 369 425 14,700 -1,575 Descending FlightAware ADS-B
Tue 08:31:54 PM 34.6480 139.9410 45° Northeast 372 428 13,600 -1,650 Descending FlightAware ADS-B
Tue 08:32:34 PM 34.7030 139.9920 37° Northeast 339 390 12,500 -1,271 Descending FlightAware ADS-B
Tue 08:33:19 PM 34.7640 140.0070 11° North 326 375 11,800 -1,200 Descending FlightAware ADS-B
Tue 08:33:59 PM 34.8230 140.0190 North 310 357 10,800 -1,271 Descending FlightAware ADS-B
Tue 08:34:44 PM 34.8890 140.0340 11° North 296 341 10,000 -943 Descending FlightAware ADS-B
Tue 08:35:09 PM 34.9200 140.0410 10° North 275 316 9,700 -750 Descending FlightAware ADS-B
Tue 08:35:24 PM 34.9410 140.0440 North 273 314 9,500 -800 Descending FlightAware ADS-B
Tue 08:35:54 PM 34.9840 140.0390 355° North 261 300 9,100 -1,091 Descending FlightAware ADS-B
Tue 08:36:19 PM 35.0140 140.0330 351° North 265 305 8,500 -1,867 Descending FlightAware ADS-B
Tue 08:36:39 PM 35.0360 140.0280 349° North 264 304 7,700 -1,200 Descending FlightAware ADS-B
Tue 08:36:54 PM 35.0550 140.0240 350° North 262 302 7,800 -1,200 Climbing FlightAware ADS-B
Tue 08:37:14 PM 35.0780 140.0200 352° North 261 300 7,000 -1,320 Descending FlightAware ADS-B
Tue 08:37:44 PM 35.1160 140.0120 350° North 269 310 6,700 -960 Descending FlightAware ADS-B
Tue 08:38:04 PM 35.1410 140.0070 351° North 264 304 6,200 -1,560 Descending FlightAware ADS-B
Tue 08:38:34 PM 35.1780 139.9990 350° North 268 308 5,400 -923 Descending FlightAware ADS-B
Tue 08:39:09 PM 35.2190 139.9910 351° North 264 304 5,200 -300 Descending FlightAware ADS-B
Tue 08:39:14 PM 35.2250 139.9900 352° North 264 304 5,200  Level FlightAware ADS-B
Tue 08:39:44 PM 35.2600 139.9800 347° North 243 280 5,200  Level FlightAware ADS-B
Tue 08:40:19 PM 35.2920 139.9590 332° Northwest 209 241 5,200  Level FlightAware ADS-B
Tue 08:40:44 PM 35.3120 139.9440 329° Northwest 191 220 5,200  Level FlightAware ADS-B
Tue 08:41:09 PM 35.3300 139.9320 331° Northwest 192 221 5,200 -1,091 Level FlightAware ADS-B
Tue 08:41:39 PM 35.3540 139.9150 330° Northwest 195 224 4,200 -1,600 Descending FlightAware ADS-B
Tue 08:42:09 PM 35.3780 139.8980 330° Northwest 192 221 3,600 -700 Descending FlightAware ADS-B
Tue 08:42:39 PM 35.4000 139.8830 331° Northwest 191 220 3,500 -1,091 Descending FlightAware ADS-B
Tue 08:43:04 PM 35.4200 139.8680 329° Northwest 188 216 2,600 -1,200 Descending FlightAware ADS-B
Tue 08:43:19 PM 35.4310 139.8600 329° Northwest 182 209 2,700 -1,050 Climbing FlightAware ADS-B
Tue 08:43:44 PM 35.4490 139.8480 331° Northwest 172 198 1,900 -960 Descending FlightAware ADS-B
Tue 08:44:09 PM 35.4660 139.8360 330° Northwest 161 185 1,900 -900 Level FlightAware ADS-B
Tue 08:44:44 PM 35.4870 139.8210 330° Northwest 141 162 1,000 -1,200 Descending FlightAware ADS-B
Tue 08:45:09 PM 35.4990 139.8120 329° Northwest 128 147 700 -720 Descending FlightAware ADS-B
Tue 08:45:34 PM 35.5120 139.8030 331° Northwest 129 148 400 -600 Descending FlightAware ADS-B
Tue 08:46:09 PM 35.5290 139.7910 330° Northwest 130 150 100 -514 Descending FlightAware ADS-B
Tue 08:48:00 PM 35.5523 139.7797 338° Northwest  Level Estimated
Tue 08:49:00 PM 35.5523 139.7797 122° Southeast  Level Estimated

Login

Don't have an account? Register now (free) for customized features, flight alerts, and more!